sensor_id;sensor_type;location;lat;lon;timestamp;temperature;humidity
59282;DHT22;45054;52.062;10.010;2024-03-06T00:00:58;5.20;99.90
59282;DHT22;45054;52.062;10.010;2024-03-06T00:03:23;5.30;99.90
59282;DHT22;45054;52.062;10.010;2024-03-06T00:05:49;5.20;99.90
59282;DHT22;45054;52.062;10.010;2024-03-06T00:08:15;5.20;99.90
59282;DHT22;45054;52.062;10.010;2024-03-06T00:10:40;5.20;99.90
59282;DHT22;45054;52.062;10.010;2024-03-06T00:13:08;5.30;99.90
59282;DHT22;45054;52.062;10.010;2024-03-06T00:15:33;5.20;99.90
59282;DHT22;45054;52.062;10.010;2024-03-06T00:17:59;5.20;99.90
59282;DHT22;45054;52.062;10.010;2024-03-06T00:20:25;5.20;99.90
59282;DHT22;45054;52.062;10.010;2024-03-06T00:22:51;5.20;99.90
59282;DHT22;45054;52.062;10.010;2024-03-06T00:25:17;5.20;99.90
59282;DHT22;45054;52.062;10.010;2024-03-06T00:27:42;5.20;99.90
59282;DHT22;45054;52.062;10.010;2024-03-06T00:30:10;5.10;99.90
59282;DHT22;45054;52.062;10.010;2024-03-06T00:32:36;5.10;99.90
59282;DHT22;45054;52.062;10.010;2024-03-06T00:35:01;5.10;99.90
59282;DHT22;45054;52.062;10.010;2024-03-06T00:37:27;5.10;99.90
59282;DHT22;45054;52.062;10.010;2024-03-06T00:39:53;5.10;99.90
59282;DHT22;45054;52.062;10.010;2024-03-06T00:42:18;5.10;99.90
59282;DHT22;45054;52.062;10.010;2024-03-06T00:44:44;5.10;99.90
59282;DHT22;45054;52.062;10.010;2024-03-06T00:47:11;5.10;99.90
59282;DHT22;45054;52.062;10.010;2024-03-06T00:49:37;5.10;99.90
59282;DHT22;45054;52.062;10.010;2024-03-06T00:52:02;5.10;99.90
59282;DHT22;45054;52.062;10.010;2024-03-06T00:54:28;5.10;99.90
59282;DHT22;45054;52.062;10.010;2024-03-06T00:56:53;5.20;99.90
59282;DHT22;45054;52.062;10.010;2024-03-06T00:59:19;5.10;99.90
59282;DHT22;45054;52.062;10.010;2024-03-06T01:01:44;5.10;99.90
59282;DHT22;45054;52.062;10.010;2024-03-06T01:04:12;5.10;99.90
59282;DHT22;45054;52.062;10.010;2024-03-06T01:06:37;5.10;99.90
59282;DHT22;45054;52.062;10.010;2024-03-06T01:09:03;5.20;99.90
59282;DHT22;45054;52.062;10.010;2024-03-06T01:11:29;5.20;99.90
59282;DHT22;45054;52.062;10.010;2024-03-06T01:13:54;5.10;99.90
59282;DHT22;45054;52.062;10.010;2024-03-06T01:16:20;5.10;99.90
59282;DHT22;45054;52.062;10.010;2024-03-06T01:18:45;5.10;99.90
59282;DHT22;45054;52.062;10.010;2024-03-06T01:21:12;5.10;99.90
59282;DHT22;45054;52.062;10.010;2024-03-06T01:23:38;5.20;99.90
59282;DHT22;45054;52.062;10.010;2024-03-06T01:26:03;5.10;99.90
59282;DHT22;45054;52.062;10.010;2024-03-06T01:28:29;5.10;99.90
59282;DHT22;45054;52.062;10.010;2024-03-06T01:30:55;5.10;99.90
59282;DHT22;45054;52.062;10.010;2024-03-06T01:33:20;5.10;99.90
59282;DHT22;45054;52.062;10.010;2024-03-06T01:35:46;5.10;99.90
59282;DHT22;45054;52.062;10.010;2024-03-06T01:38:13;5.10;99.90
59282;DHT22;45054;52.062;10.010;2024-03-06T01:40:43;5.10;99.90
59282;DHT22;45054;52.062;10.010;2024-03-06T01:43:18;5.10;99.90
59282;DHT22;45054;52.062;10.010;2024-03-06T01:45:44;5.10;99.90
59282;DHT22;45054;52.062;10.010;2024-03-06T01:48:09;5.00;99.90
59282;DHT22;45054;52.062;10.010;2024-03-06T01:50:35;5.00;99.90
59282;DHT22;45054;52.062;10.010;2024-03-06T01:53:01;5.00;99.90
59282;DHT22;45054;52.062;10.010;2024-03-06T01:55:28;5.10;99.90
59282;DHT22;45054;52.062;10.010;2024-03-06T01:57:53;5.00;99.90
59282;DHT22;45054;52.062;10.010;2024-03-06T02:00:19;5.00;99.90
59282;DHT22;45054;52.062;10.010;2024-03-06T02:02:46;5.00;99.90
59282;DHT22;45054;52.062;10.010;2024-03-06T02:05:12;4.90;99.90
59282;DHT22;45054;52.062;10.010;2024-03-06T02:07:38;4.90;99.90
59282;DHT22;45054;52.062;10.010;2024-03-06T02:10:05;4.90;99.90
59282;DHT22;45054;52.062;10.010;2024-03-06T02:12:33;4.90;99.90
59282;DHT22;45054;52.062;10.010;2024-03-06T02:14:58;4.90;99.90
59282;DHT22;45054;52.062;10.010;2024-03-06T02:17:24;4.90;99.90
59282;DHT22;45054;52.062;10.010;2024-03-06T02:19:49;4.90;99.90
59282;DHT22;45054;52.062;10.010;2024-03-06T02:22:16;4.90;99.90
59282;DHT22;45054;52.062;10.010;2024-03-06T02:24:44;5.00;99.90
59282;DHT22;45054;52.062;10.010;2024-03-06T02:27:11;4.90;99.90
59282;DHT22;45054;52.062;10.010;2024-03-06T02:29:36;4.90;99.90
59282;DHT22;45054;52.062;10.010;2024-03-06T02:32:02;4.90;99.90
59282;DHT22;45054;52.062;10.010;2024-03-06T02:34:27;5.00;99.90
59282;DHT22;45054;52.062;10.010;2024-03-06T02:36:53;5.00;99.90
59282;DHT22;45054;52.062;10.010;2024-03-06T02:39:20;5.00;99.90
59282;DHT22;45054;52.062;10.010;2024-03-06T02:41:45;5.00;99.90
59282;DHT22;45054;52.062;10.010;2024-03-06T02:44:11;5.00;99.90
59282;DHT22;45054;52.062;10.010;2024-03-06T02:46:36;5.00;99.90
59282;DHT22;45054;52.062;10.010;2024-03-06T02:49:02;5.00;99.90
59282;DHT22;45054;52.062;10.010;2024-03-06T02:51:28;5.00;99.90
59282;DHT22;45054;52.062;10.010;2024-03-06T02:53:53;5.00;99.90
59282;DHT22;45054;52.062;10.010;2024-03-06T02:56:20;5.00;99.90
59282;DHT22;45054;52.062;10.010;2024-03-06T02:58:46;5.00;99.90
59282;DHT22;45054;52.062;10.010;2024-03-06T03:01:13;4.90;99.90
59282;DHT22;45054;52.062;10.010;2024-03-06T03:03:40;4.90;99.90
59282;DHT22;45054;52.062;10.010;2024-03-06T03:06:05;4.90;99.90
59282;DHT22;45054;52.062;10.010;2024-03-06T03:08:31;4.90;99.90
59282;DHT22;45054;52.062;10.010;2024-03-06T03:10:57;4.90;99.90
59282;DHT22;45054;52.062;10.010;2024-03-06T03:13:24;4.90;99.90
59282;DHT22;45054;52.062;10.010;2024-03-06T03:15:49;5.00;99.90
59282;DHT22;45054;52.062;10.010;2024-03-06T03:18:15;5.00;99.90
59282;DHT22;45054;52.062;10.010;2024-03-06T03:20:40;5.00;99.90
59282;DHT22;45054;52.062;10.010;2024-03-06T03:23:06;5.00;99.90
59282;DHT22;45054;52.062;10.010;2024-03-06T03:25:32;5.10;99.90
59282;DHT22;45054;52.062;10.010;2024-03-06T03:27:57;5.10;99.90
59282;DHT22;45054;52.062;10.010;2024-03-06T03:30:24;5.10;99.90
59282;DHT22;45054;52.062;10.010;2024-03-06T03:32:50;5.10;99.90
59282;DHT22;45054;52.062;10.010;2024-03-06T03:35:15;5.10;99.90
59282;DHT22;45054;52.062;10.010;2024-03-06T03:37:42;5.10;99.90
59282;DHT22;45054;52.062;10.010;2024-03-06T03:40:08;5.10;99.90
59282;DHT22;45054;52.062;10.010;2024-03-06T03:42:34;5.00;99.90
59282;DHT22;45054;52.062;10.010;2024-03-06T03:44:59;5.00;99.90
59282;DHT22;45054;52.062;10.010;2024-03-06T03:47:26;5.00;99.90
59282;DHT22;45054;52.062;10.010;2024-03-06T03:49:52;5.00;99.90
59282;DHT22;45054;52.062;10.010;2024-03-06T03:52:17;5.00;99.90
59282;DHT22;45054;52.062;10.010;2024-03-06T03:54:43;5.00;99.90
59282;DHT22;45054;52.062;10.010;2024-03-06T03:57:08;5.00;99.90
59282;DHT22;45054;52.062;10.010;2024-03-06T03:59:34;5.00;99.90
59282;DHT22;45054;52.062;10.010;2024-03-06T04:02:00;5.00;99.90
59282;DHT22;45054;52.062;10.010;2024-03-06T04:04:26;5.00;99.90
59282;DHT22;45054;52.062;10.010;2024-03-06T04:06:52;5.00;99.90
59282;DHT22;45054;52.062;10.010;2024-03-06T04:09:17;5.00;99.90
59282;DHT22;45054;52.062;10.010;2024-03-06T04:11:43;5.00;99.90
59282;DHT22;45054;52.062;10.010;2024-03-06T04:14:09;5.00;99.90
59282;DHT22;45054;52.062;10.010;2024-03-06T04:16:35;5.00;99.90
59282;DHT22;45054;52.062;10.010;2024-03-06T04:19:01;5.10;99.90
59282;DHT22;45054;52.062;10.010;2024-03-06T04:21:27;5.10;99.90
59282;DHT22;45054;52.062;10.010;2024-03-06T04:23:53;5.10;99.90
59282;DHT22;45054;52.062;10.010;2024-03-06T04:26:19;5.10;99.90
59282;DHT22;45054;52.062;10.010;2024-03-06T04:28:44;5.10;99.90
59282;DHT22;45054;52.062;10.010;2024-03-06T04:31:10;5.10;99.90
59282;DHT22;45054;52.062;10.010;2024-03-06T04:33:36;5.10;99.90
59282;DHT22;45054;52.062;10.010;2024-03-06T04:36:03;5.10;99.90
59282;DHT22;45054;52.062;10.010;2024-03-06T04:38:30;5.10;99.90
59282;DHT22;45054;52.062;10.010;2024-03-06T04:40:56;5.10;99.90
59282;DHT22;45054;52.062;10.010;2024-03-06T04:43:21;5.10;99.90
59282;DHT22;45054;52.062;10.010;2024-03-06T04:45:47;5.10;99.90
59282;DHT22;45054;52.062;10.010;2024-03-06T04:48:12;5.10;99.90
59282;DHT22;45054;52.062;10.010;2024-03-06T04:50:38;5.10;99.90
59282;DHT22;45054;52.062;10.010;2024-03-06T04:53:04;5.00;99.90
59282;DHT22;45054;52.062;10.010;2024-03-06T04:55:31;5.00;99.90
59282;DHT22;45054;52.062;10.010;2024-03-06T04:57:56;5.00;99.90
59282;DHT22;45054;52.062;10.010;2024-03-06T05:00:22;5.00;99.90
59282;DHT22;45054;52.062;10.010;2024-03-06T05:02:48;5.00;99.90
59282;DHT22;45054;52.062;10.010;2024-03-06T05:05:13;5.00;99.90
59282;DHT22;45054;52.062;10.010;2024-03-06T05:07:39;5.00;99.90
59282;DHT22;45054;52.062;10.010;2024-03-06T05:10:05;5.00;99.90
59282;DHT22;45054;52.062;10.010;2024-03-06T05:12:33;5.00;99.90
59282;DHT22;45054;52.062;10.010;2024-03-06T05:14:58;5.00;99.90
59282;DHT22;45054;52.062;10.010;2024-03-06T05:17:24;5.00;99.90
59282;DHT22;45054;52.062;10.010;2024-03-06T05:19:50;5.00;99.90
59282;DHT22;45054;52.062;10.010;2024-03-06T05:22:16;5.00;99.90
59282;DHT22;45054;52.062;10.010;2024-03-06T05:24:42;5.10;99.90
59282;DHT22;45054;52.062;10.010;2024-03-06T05:27:08;5.10;99.90
59282;DHT22;45054;52.062;10.010;2024-03-06T05:29:35;5.00;99.90
59282;DHT22;45054;52.062;10.010;2024-03-06T05:32:01;5.00;99.90
59282;DHT22;45054;52.062;10.010;2024-03-06T05:34:26;5.10;99.90
59282;DHT22;45054;52.062;10.010;2024-03-06T05:36:52;5.00;99.90
59282;DHT22;45054;52.062;10.010;2024-03-06T05:39:17;5.00;99.90
59282;DHT22;45054;52.062;10.010;2024-03-06T05:41:43;5.10;99.90
59282;DHT22;45054;52.062;10.010;2024-03-06T05:44:09;5.00;99.90
59282;DHT22;45054;52.062;10.010;2024-03-06T05:46:36;5.10;99.90
59282;DHT22;45054;52.062;10.010;2024-03-06T05:49:01;5.10;99.90
59282;DHT22;45054;52.062;10.010;2024-03-06T05:51:27;5.10;99.90
59282;DHT22;45054;52.062;10.010;2024-03-06T05:53:53;5.10;99.90
59282;DHT22;45054;52.062;10.010;2024-03-06T05:56:18;5.10;99.90
59282;DHT22;45054;52.062;10.010;2024-03-06T05:58:44;5.10;99.90
59282;DHT22;45054;52.062;10.010;2024-03-06T06:01:10;5.10;99.90
59282;DHT22;45054;52.062;10.010;2024-03-06T06:03:36;5.10;99.90
59282;DHT22;45054;52.062;10.010;2024-03-06T06:06:02;5.10;99.90
59282;DHT22;45054;52.062;10.010;2024-03-06T06:08:28;5.10;99.90
59282;DHT22;45054;52.062;10.010;2024-03-06T06:10:53;5.10;99.90
59282;DHT22;45054;52.062;10.010;2024-03-06T06:13:19;5.00;99.90
59282;DHT22;45054;52.062;10.010;2024-03-06T06:15:44;5.00;99.90
59282;DHT22;45054;52.062;10.010;2024-03-06T06:18:10;5.10;99.90
59282;DHT22;45054;52.062;10.010;2024-03-06T06:20:37;5.10;99.90
59282;DHT22;45054;52.062;10.010;2024-03-06T06:23:02;5.10;99.90
59282;DHT22;45054;52.062;10.010;2024-03-06T06:25:29;5.10;99.90
59282;DHT22;45054;52.062;10.010;2024-03-06T06:27:55;5.10;99.90
59282;DHT22;45054;52.062;10.010;2024-03-06T06:30:20;5.10;99.90
59282;DHT22;45054;52.062;10.010;2024-03-06T06:32:46;5.10;99.90
59282;DHT22;45054;52.062;10.010;2024-03-06T06:35:12;5.10;99.90
59282;DHT22;45054;52.062;10.010;2024-03-06T06:37:39;5.10;99.90
59282;DHT22;45054;52.062;10.010;2024-03-06T06:40:06;5.20;99.90
59282;DHT22;45054;52.062;10.010;2024-03-06T06:42:32;5.20;99.90
59282;DHT22;45054;52.062;10.010;2024-03-06T06:44:58;5.20;99.90
59282;DHT22;45054;52.062;10.010;2024-03-06T06:47:23;5.10;99.90
59282;DHT22;45054;52.062;10.010;2024-03-06T06:49:49;5.10;99.90
59282;DHT22;45054;52.062;10.010;2024-03-06T06:52:14;5.10;99.90
59282;DHT22;45054;52.062;10.010;2024-03-06T06:54:41;5.10;99.90
59282;DHT22;45054;52.062;10.010;2024-03-06T06:57:07;5.10;99.90
59282;DHT22;45054;52.062;10.010;2024-03-06T06:59:32;5.10;99.90
59282;DHT22;45054;52.062;10.010;2024-03-06T07:01:58;5.10;99.90
59282;DHT22;45054;52.062;10.010;2024-03-06T07:04:23;5.10;99.90
59282;DHT22;45054;52.062;10.010;2024-03-06T07:06:49;5.00;99.90
59282;DHT22;45054;52.062;10.010;2024-03-06T07:09:15;5.10;99.90
59282;DHT22;45054;52.062;10.010;2024-03-06T07:11:41;5.00;99.90
59282;DHT22;45054;52.062;10.010;2024-03-06T07:14:07;5.00;99.90
59282;DHT22;45054;52.062;10.010;2024-03-06T07:16:33;5.10;99.90
59282;DHT22;45054;52.062;10.010;2024-03-06T07:18:58;5.10;99.90
59282;DHT22;45054;52.062;10.010;2024-03-06T07:21:24;5.10;99.90
59282;DHT22;45054;52.062;10.010;2024-03-06T07:23:49;5.10;99.90
59282;DHT22;45054;52.062;10.010;2024-03-06T07:26:15;5.00;99.90
59282;DHT22;45054;52.062;10.010;2024-03-06T07:28:42;5.00;99.90
59282;DHT22;45054;52.062;10.010;2024-03-06T07:31:07;5.00;99.90
59282;DHT22;45054;52.062;10.010;2024-03-06T07:33:33;5.10;99.90
59282;DHT22;45054;52.062;10.010;2024-03-06T07:35:58;5.10;99.90
59282;DHT22;45054;52.062;10.010;2024-03-06T07:38:24;5.10;99.90
59282;DHT22;45054;52.062;10.010;2024-03-06T07:40:49;5.10;99.90
59282;DHT22;45054;52.062;10.010;2024-03-06T07:43:15;5.20;99.90
59282;DHT22;45054;52.062;10.010;2024-03-06T07:45:42;5.20;99.90
59282;DHT22;45054;52.062;10.010;2024-03-06T07:48:07;5.20;99.90
59282;DHT22;45054;52.062;10.010;2024-03-06T07:50:33;5.20;99.90
59282;DHT22;45054;52.062;10.010;2024-03-06T07:52:59;5.20;99.90
59282;DHT22;45054;52.062;10.010;2024-03-06T07:55:24;5.30;99.90
59282;DHT22;45054;52.062;10.010;2024-03-06T07:57:50;5.30;99.90
59282;DHT22;45054;52.062;10.010;2024-03-06T08:00:16;5.30;99.90
59282;DHT22;45054;52.062;10.010;2024-03-06T08:02:43;5.30;99.90
59282;DHT22;45054;52.062;10.010;2024-03-06T08:05:09;5.30;99.90
59282;DHT22;45054;52.062;10.010;2024-03-06T08:07:35;5.30;99.90
59282;DHT22;45054;52.062;10.010;2024-03-06T08:10:00;5.40;99.90
59282;DHT22;45054;52.062;10.010;2024-03-06T08:12:26;5.40;99.90
59282;DHT22;45054;52.062;10.010;2024-03-06T08:14:53;5.40;99.90
59282;DHT22;45054;52.062;10.010;2024-03-06T08:17:19;5.40;99.90
59282;DHT22;45054;52.062;10.010;2024-03-06T08:19:46;5.40;99.90
59282;DHT22;45054;52.062;10.010;2024-03-06T08:22:11;5.50;99.90
59282;DHT22;45054;52.062;10.010;2024-03-06T08:24:37;5.50;99.90
59282;DHT22;45054;52.062;10.010;2024-03-06T08:27:02;5.40;99.90
59282;DHT22;45054;52.062;10.010;2024-03-06T08:29:28;5.40;99.90
59282;DHT22;45054;52.062;10.010;2024-03-06T08:31:54;5.40;99.90
59282;DHT22;45054;52.062;10.010;2024-03-06T08:34:19;5.50;99.90
59282;DHT22;45054;52.062;10.010;2024-03-06T08:36:46;5.50;99.90
59282;DHT22;45054;52.062;10.010;2024-03-06T08:39:12;5.50;99.90
59282;DHT22;45054;52.062;10.010;2024-03-06T08:41:37;5.60;99.90
59282;DHT22;45054;52.062;10.010;2024-03-06T08:44:03;5.60;99.90
59282;DHT22;45054;52.062;10.010;2024-03-06T08:46:28;5.70;99.90
59282;DHT22;45054;52.062;10.010;2024-03-06T08:48:54;5.70;99.90
59282;DHT22;45054;52.062;10.010;2024-03-06T08:51:19;5.70;99.90
59282;DHT22;45054;52.062;10.010;2024-03-06T08:53:46;5.70;99.90
59282;DHT22;45054;52.062;10.010;2024-03-06T08:56:12;5.70;99.90
59282;DHT22;45054;52.062;10.010;2024-03-06T08:58:38;5.70;99.90
59282;DHT22;45054;52.062;10.010;2024-03-06T09:01:03;5.70;99.90
59282;DHT22;45054;52.062;10.010;2024-03-06T09:03:29;5.70;99.90
59282;DHT22;45054;52.062;10.010;2024-03-06T09:05:54;5.70;99.90
59282;DHT22;45054;52.062;10.010;2024-03-06T09:08:20;5.60;99.90
59282;DHT22;45054;52.062;10.010;2024-03-06T09:10:47;5.50;99.90
59282;DHT22;45054;52.062;10.010;2024-03-06T09:13:13;5.60;99.90
59282;DHT22;45054;52.062;10.010;2024-03-06T09:15:38;5.50;99.90
59282;DHT22;45054;52.062;10.010;2024-03-06T09:18:04;5.50;99.90
59282;DHT22;45054;52.062;10.010;2024-03-06T09:20:30;5.50;99.90
59282;DHT22;45054;52.062;10.010;2024-03-06T09:22:55;5.50;99.90
59282;DHT22;45054;52.062;10.010;2024-03-06T09:25:21;5.50;99.90
59282;DHT22;45054;52.062;10.010;2024-03-06T09:27:48;5.50;99.90
59282;DHT22;45054;52.062;10.010;2024-03-06T09:30:14;5.50;99.90
59282;DHT22;45054;52.062;10.010;2024-03-06T09:32:39;5.50;99.90
59282;DHT22;45054;52.062;10.010;2024-03-06T09:35:06;5.50;99.90
59282;DHT22;45054;52.062;10.010;2024-03-06T09:37:32;5.50;99.90
59282;DHT22;45054;52.062;10.010;2024-03-06T09:39:57;5.60;99.90
59282;DHT22;45054;52.062;10.010;2024-03-06T09:42:23;5.60;99.90
59282;DHT22;45054;52.062;10.010;2024-03-06T09:44:50;5.70;99.90
59282;DHT22;45054;52.062;10.010;2024-03-06T09:47:20;5.70;99.90
59282;DHT22;45054;52.062;10.010;2024-03-06T09:49:46;5.70;99.90
59282;DHT22;45054;52.062;10.010;2024-03-06T09:52:12;5.80;99.90
59282;DHT22;45054;52.062;10.010;2024-03-06T09:54:37;5.80;99.90
59282;DHT22;45054;52.062;10.010;2024-03-06T09:57:04;5.90;99.90
59282;DHT22;45054;52.062;10.010;2024-03-06T09:59:29;5.90;99.90
59282;DHT22;45054;52.062;10.010;2024-03-06T10:01:58;5.90;99.90
59282;DHT22;45054;52.062;10.010;2024-03-06T10:04:25;5.90;99.90
59282;DHT22;45054;52.062;10.010;2024-03-06T10:06:53;6.00;99.90
59282;DHT22;45054;52.062;10.010;2024-03-06T10:09:19;6.00;99.90
59282;DHT22;45054;52.062;10.010;2024-03-06T10:11:45;6.10;99.90
59282;DHT22;45054;52.062;10.010;2024-03-06T10:14:11;6.00;99.90
59282;DHT22;45054;52.062;10.010;2024-03-06T10:16:36;6.00;99.90
59282;DHT22;45054;52.062;10.010;2024-03-06T10:19:16;5.90;99.90
59282;DHT22;45054;52.062;10.010;2024-03-06T10:21:41;5.90;99.90
59282;DHT22;45054;52.062;10.010;2024-03-06T10:24:07;5.90;99.90
59282;DHT22;45054;52.062;10.010;2024-03-06T10:26:33;5.90;99.90
59282;DHT22;45054;52.062;10.010;2024-03-06T10:28:58;5.90;99.90
59282;DHT22;45054;52.062;10.010;2024-03-06T10:31:27;6.00;99.90
59282;DHT22;45054;52.062;10.010;2024-03-06T10:33:52;6.10;99.90
59282;DHT22;45054;52.062;10.010;2024-03-06T10:36:19;6.10;99.90
59282;DHT22;45054;52.062;10.010;2024-03-06T10:38:46;6.20;99.90
59282;DHT22;45054;52.062;10.010;2024-03-06T10:41:14;6.30;99.90
59282;DHT22;45054;52.062;10.010;2024-03-06T10:43:40;6.30;99.90
59282;DHT22;45054;52.062;10.010;2024-03-06T10:46:11;6.40;99.90
59282;DHT22;45054;52.062;10.010;2024-03-06T10:48:38;6.30;99.90
59282;DHT22;45054;52.062;10.010;2024-03-06T10:51:05;6.30;99.90
59282;DHT22;45054;52.062;10.010;2024-03-06T10:53:34;6.30;99.90
59282;DHT22;45054;52.062;10.010;2024-03-06T10:56:02;6.30;99.90
59282;DHT22;45054;52.062;10.010;2024-03-06T10:58:29;6.30;99.90
59282;DHT22;45054;52.062;10.010;2024-03-06T11:00:56;6.30;99.90
59282;DHT22;45054;52.062;10.010;2024-03-06T11:03:22;6.40;99.90
59282;DHT22;45054;52.062;10.010;2024-03-06T11:05:47;6.40;99.90
59282;DHT22;45054;52.062;10.010;2024-03-06T11:08:13;6.50;99.90
59282;DHT22;45054;52.062;10.010;2024-03-06T11:10:42;6.60;99.90
59282;DHT22;45054;52.062;10.010;2024-03-06T11:13:20;6.60;99.90
59282;DHT22;45054;52.062;10.010;2024-03-06T11:15:46;6.70;99.90
59282;DHT22;45054;52.062;10.010;2024-03-06T11:18:42;6.70;99.90
59282;DHT22;45054;52.062;10.010;2024-03-06T11:21:30;6.80;99.90
59282;DHT22;45054;52.062;10.010;2024-03-06T11:24:13;6.90;99.90
59282;DHT22;45054;52.062;10.010;2024-03-06T11:26:43;6.90;99.90
59282;DHT22;45054;52.062;10.010;2024-03-06T11:29:09;6.90;99.90
59282;DHT22;45054;52.062;10.010;2024-03-06T11:31:35;6.90;99.90
59282;DHT22;45054;52.062;10.010;2024-03-06T11:34:04;7.00;99.90
59282;DHT22;45054;52.062;10.010;2024-03-06T11:36:30;7.00;99.90
59282;DHT22;45054;52.062;10.010;2024-03-06T11:38:57;7.00;99.90
59282;DHT22;45054;52.062;10.010;2024-03-06T11:41:24;7.10;99.90
59282;DHT22;45054;52.062;10.010;2024-03-06T11:43:51;7.20;99.90
59282;DHT22;45054;52.062;10.010;2024-03-06T11:46:17;7.30;99.90
59282;DHT22;45054;52.062;10.010;2024-03-06T11:48:43;7.30;99.90
59282;DHT22;45054;52.062;10.010;2024-03-06T11:51:09;7.40;99.90
59282;DHT22;45054;52.062;10.010;2024-03-06T11:53:34;7.40;99.90
59282;DHT22;45054;52.062;10.010;2024-03-06T11:56:00;7.50;99.90
59282;DHT22;45054;52.062;10.010;2024-03-06T11:58:26;7.50;99.90
59282;DHT22;45054;52.062;10.010;2024-03-06T12:00:54;7.50;99.90
59282;DHT22;45054;52.062;10.010;2024-03-06T12:03:20;7.60;99.90
59282;DHT22;45054;52.062;10.010;2024-03-06T12:05:46;7.70;99.90
59282;DHT22;45054;52.062;10.010;2024-03-06T12:08:11;7.70;99.90
59282;DHT22;45054;52.062;10.010;2024-03-06T12:10:37;7.80;99.90
59282;DHT22;45054;52.062;10.010;2024-03-06T12:13:03;7.70;99.90
59282;DHT22;45054;52.062;10.010;2024-03-06T12:15:29;7.70;99.90
59282;DHT22;45054;52.062;10.010;2024-03-06T12:17:56;7.80;99.90
59282;DHT22;45054;52.062;10.010;2024-03-06T12:20:23;7.90;99.90
59282;DHT22;45054;52.062;10.010;2024-03-06T12:22:49;7.90;99.90
59282;DHT22;45054;52.062;10.010;2024-03-06T12:25:18;8.00;99.90
59282;DHT22;45054;52.062;10.010;2024-03-06T12:27:45;8.00;99.90
59282;DHT22;45054;52.062;10.010;2024-03-06T12:30:11;8.00;99.90
59282;DHT22;45054;52.062;10.010;2024-03-06T12:32:36;8.00;99.90
59282;DHT22;45054;52.062;10.010;2024-03-06T12:35:04;8.10;99.90
59282;DHT22;45054;52.062;10.010;2024-03-06T12:37:30;8.10;99.90
59282;DHT22;45054;52.062;10.010;2024-03-06T12:39:56;8.10;99.90
59282;DHT22;45054;52.062;10.010;2024-03-06T12:42:21;8.10;99.90
59282;DHT22;45054;52.062;10.010;2024-03-06T12:44:47;8.00;99.90
59282;DHT22;45054;52.062;10.010;2024-03-06T12:47:13;8.00;99.90
59282;DHT22;45054;52.062;10.010;2024-03-06T12:49:38;8.00;99.90
59282;DHT22;45054;52.062;10.010;2024-03-06T12:52:05;7.90;99.90
59282;DHT22;45054;52.062;10.010;2024-03-06T12:54:31;7.80;99.90
59282;DHT22;45054;52.062;10.010;2024-03-06T12:56:57;7.80;99.90
59282;DHT22;45054;52.062;10.010;2024-03-06T12:59:22;7.90;99.90
59282;DHT22;45054;52.062;10.010;2024-03-06T13:01:48;7.90;99.90
59282;DHT22;45054;52.062;10.010;2024-03-06T13:04:13;7.90;99.90
59282;DHT22;45054;52.062;10.010;2024-03-06T13:06:39;7.90;99.90
59282;DHT22;45054;52.062;10.010;2024-03-06T13:09:06;7.90;99.90
59282;DHT22;45054;52.062;10.010;2024-03-06T13:11:32;8.00;99.90
59282;DHT22;45054;52.062;10.010;2024-03-06T13:13:57;8.10;99.90
59282;DHT22;45054;52.062;10.010;2024-03-06T13:16:23;8.20;99.90
59282;DHT22;45054;52.062;10.010;2024-03-06T13:18:49;8.10;99.90
59282;DHT22;45054;52.062;10.010;2024-03-06T13:21:14;8.20;99.90
59282;DHT22;45054;52.062;10.010;2024-03-06T13:23:40;8.20;99.90
59282;DHT22;45054;52.062;10.010;2024-03-06T13:26:07;8.20;99.90
59282;DHT22;45054;52.062;10.010;2024-03-06T13:28:32;8.20;99.90
59282;DHT22;45054;52.062;10.010;2024-03-06T13:30:58;8.20;99.90
59282;DHT22;45054;52.062;10.010;2024-03-06T13:33:24;8.20;99.90
59282;DHT22;45054;52.062;10.010;2024-03-06T13:35:49;8.20;99.90
59282;DHT22;45054;52.062;10.010;2024-03-06T13:38:15;8.20;99.90
59282;DHT22;45054;52.062;10.010;2024-03-06T13:40:40;8.20;99.90
59282;DHT22;45054;52.062;10.010;2024-03-06T13:43:07;8.20;99.90
59282;DHT22;45054;52.062;10.010;2024-03-06T13:45:33;8.20;99.90
59282;DHT22;45054;52.062;10.010;2024-03-06T13:47:58;8.20;99.90
59282;DHT22;45054;52.062;10.010;2024-03-06T13:50:24;8.20;99.90
59282;DHT22;45054;52.062;10.010;2024-03-06T13:52:49;8.20;99.90
59282;DHT22;45054;52.062;10.010;2024-03-06T13:55:16;8.30;99.90
59282;DHT22;45054;52.062;10.010;2024-03-06T13:57:42;8.30;99.90
59282;DHT22;45054;52.062;10.010;2024-03-06T14:00:10;8.30;99.90
59282;DHT22;45054;52.062;10.010;2024-03-06T14:02:36;8.30;99.90
59282;DHT22;45054;52.062;10.010;2024-03-06T14:05:02;8.30;99.90
59282;DHT22;45054;52.062;10.010;2024-03-06T14:07:27;8.30;99.90
59282;DHT22;45054;52.062;10.010;2024-03-06T14:09:53;8.20;99.90
59282;DHT22;45054;52.062;10.010;2024-03-06T14:12:18;8.20;99.90
59282;DHT22;45054;52.062;10.010;2024-03-06T14:14:44;8.20;99.90
59282;DHT22;45054;52.062;10.010;2024-03-06T14:17:11;8.30;99.90
59282;DHT22;45054;52.062;10.010;2024-03-06T14:19:36;8.30;99.90
59282;DHT22;45054;52.062;10.010;2024-03-06T14:22:02;8.20;99.90
59282;DHT22;45054;52.062;10.010;2024-03-06T14:24:28;8.30;99.90
59282;DHT22;45054;52.062;10.010;2024-03-06T14:26:53;8.30;99.90
59282;DHT22;45054;52.062;10.010;2024-03-06T14:29:19;8.30;99.90
59282;DHT22;45054;52.062;10.010;2024-03-06T14:31:44;8.40;99.90
59282;DHT22;45054;52.062;10.010;2024-03-06T14:34:11;8.40;99.90
59282;DHT22;45054;52.062;10.010;2024-03-06T14:36:37;8.40;99.90
59282;DHT22;45054;52.062;10.010;2024-03-06T14:39:02;8.40;99.90
59282;DHT22;45054;52.062;10.010;2024-03-06T14:41:28;8.30;99.90
59282;DHT22;45054;52.062;10.010;2024-03-06T14:43:54;8.30;99.90
59282;DHT22;45054;52.062;10.010;2024-03-06T14:46:19;8.30;99.90
59282;DHT22;45054;52.062;10.010;2024-03-06T14:48:45;8.40;99.90
59282;DHT22;45054;52.062;10.010;2024-03-06T14:51:12;8.40;99.90
59282;DHT22;45054;52.062;10.010;2024-03-06T14:53:37;8.40;99.90
59282;DHT22;45054;52.062;10.010;2024-03-06T14:56:03;8.40;99.90
59282;DHT22;45054;52.062;10.010;2024-03-06T14:58:29;8.40;99.90
59282;DHT22;45054;52.062;10.010;2024-03-06T15:00:55;8.40;99.90
59282;DHT22;45054;52.062;10.010;2024-03-06T15:03:20;8.50;99.90
59282;DHT22;45054;52.062;10.010;2024-03-06T15:05:46;8.50;99.90
59282;DHT22;45054;52.062;10.010;2024-03-06T15:08:13;8.50;99.90
59282;DHT22;45054;52.062;10.010;2024-03-06T15:10:38;8.50;99.90
59282;DHT22;45054;52.062;10.010;2024-03-06T15:13:04;8.50;99.90
59282;DHT22;45054;52.062;10.010;2024-03-06T15:15:30;8.50;99.90
59282;DHT22;45054;52.062;10.010;2024-03-06T15:17:55;8.50;99.90
59282;DHT22;45054;52.062;10.010;2024-03-06T15:20:21;8.50;99.90
59282;DHT22;45054;52.062;10.010;2024-03-06T15:22:47;8.60;99.90